Ah Gwah Ching, MN

2:18 PM CDT on September 20, 2014 (GMT -0500)
LEECH LAKE TV | Change Station
CLOSE
Current Station
Personal Weather Station
Location: Walker, MN
Elevation: 1484 ft
Nearby Weather Stations

Elev 1484 ft 47.09 °N, 94.58 °W | Updated 7 minutes ago

Overcast
Overcast
65.8 °F
Feels Like 65.8 °F
N
1.0
Wind Variable Wind from North
Gusts 6.0 mph

Today
High -- | Low -- °F
--% Chance of Precip.
Yesterday
High -- | Low -- °F
Precip. -- in
7:02 AM 7:19 PM
Waning Crescent, 11% visible
Pressure 29.74 in
Visibility 10.0 miles
Clouds Mostly Cloudy 2500 ft
Dew Point 58 °F
Humidity 75%
Rainfall 0.00 in
Snow Depth Not available.
UV 3 out of 12
Pollen 3.20 out of 12
Air Quality Not available.
Flu Activity Not available.
METAR KXVG 201916Z AUTO 27003KT 10SM BKN025 19/13 A2974 RMK AO2 LTG DSNT NW

More Conditions Fewer Conditions

Pressure 29.74 in
Visibility 10.0 miles
Clouds Mostly Cloudy 2500 ft
Dew Point 58 °F
Humidity 75%
Rainfall 0.00 in
Snow Depth Not available.
UV 3 out of 12
Pollen 3.20 out of 12
Air Quality Not available.
Flu Activity Not available.
METAR KXVG 201916Z AUTO 27003KT 10SM BKN025 19/13 A2974 RMK AO2 LTG DSNT NW

More Conditions Fewer Conditions

10-Day Weather Forecast

Almanac

Astronomy

Sep. 20, 2014 Rise Set
Actual Time 7:02 AM CDT 7:19 PM CDT
Civil Twilight 6:31 AM CDT 7:50 PM CDT
Nautical Twilight 5:55 AM CDT 8:26 PM CDT
Astronomical Twilight 5:18 AM CDT 9:03 PM CDT
Moon 3:31 AM CDT 5:32 PM CDT
Length of Visible Light 13h 18m
Length of Day
12h 17m
Tomorrow will be 3m 21s shorter.
Waning Crescent, 11% of the Moon is Illuminated
Today
Waning Crescent
Sep 24
New
Oct 1
First Quarter
Oct 8
Full
Oct 15
Last Quarter

Today's Extremes

State Highs State Lows

Community

WunderPhotos

Upload Photos

1,754,921 photos uploaded!

WunderBlogs® & News

Nearby

Snow Depth

Station Depth Elevation
No new snow has been reported.

Earthquake Activity

City Distance Mag. Time & Date
No recent earthquake activity has been reported nearby.
Minimum magnitude displayed is 2.5.

Coastal Water Temperatures

Place Temperature
No Stations Reporting

Nearby Weather Stations